Time;durP1;ratioP1;P1;durP2;ratioP2;P2;SDS_P1;SDS_P2;PMS_P1;PMS_P2;Temp;Humidity;BMP_temperature;BMP_pressure;BME280_temperature;BME280_humidity;BME280_pressure;Samples;Min_cycle;Max_cycle;Signal;HPM_P1;HPM_P2
2021/10/28 00:14:34;;;;;;;231.10;220.10;;;10.30;99.90;;;;;;4328577;33;20227;-62
2021/10/28 00:17:08;;;;;;;218.77;208.40;;;10.20;99.90;;;;;;4328823;33;20169;-62
2021/10/28 00:19:38;;;;;;;220.87;210.03;;;10.20;99.90;;;;;;4328679;33;20185;-62
2021/10/28 00:22:06;;;;;;;214.57;204.43;;;10.20;99.90;;;;;;4327646;33;20192;-63
2021/10/28 00:24:33;;;;;;;221.77;210.73;;;10.20;99.90;;;;;;4328400;33;20209;-63
2021/10/28 00:27:02;;;;;;;236.03;225.37;;;10.10;99.90;;;;;;4328689;33;20177;-61
2021/10/28 00:29:31;;;;;;;214.97;204.67;;;10.20;99.90;;;;;;4330021;33;20508;-62
2021/10/28 00:32:00;;;;;;;229.17;218.50;;;10.10;99.90;;;;;;4330068;33;20229;-63
2021/10/28 00:34:27;;;;;;;217.63;207.27;;;10.20;99.90;;;;;;4327559;33;20165;-61
2021/10/28 00:36:55;;;;;;;214.47;204.40;;;10.10;99.90;;;;;;4328125;33;20748;-63
2021/10/28 00:39:22;;;;;;;218.67;208.60;;;10.10;99.90;;;;;;4328248;33;20161;-61
2021/10/28 00:41:51;;;;;;;229.23;218.60;;;10.10;99.90;;;;;;4330038;33;20207;-63
2021/10/28 00:44:18;;;;;;;222.70;212.27;;;10.10;99.90;;;;;;4357723;33;20153;-63
2021/10/28 00:46:45;;;;;;;229.27;217.93;;;10.10;99.90;;;;;;4361281;33;20189;-61
2021/10/28 00:49:13;;;;;;;227.60;216.43;;;10.10;99.90;;;;;;4360179;33;20152;-62
2021/10/28 00:51:44;;;;;;;222.37;211.73;;;10.10;99.90;;;;;;4360157;33;20210;-62
2021/10/28 00:54:17;;;;;;;239.30;227.63;;;10.10;99.90;;;;;;4361645;33;20174;-61
2021/10/28 00:56:45;;;;;;;214.00;204.13;;;10.00;99.90;;;;;;4360116;33;20200;-62
2021/10/28 00:59:12;;;;;;;229.17;217.83;;;10.00;99.90;;;;;;4362336;32;20149;-62
2021/10/28 01:01:40;;;;;;;228.63;217.80;;;10.00;99.90;;;;;;4364101;32;20175;-62
2021/10/28 01:04:07;;;;;;;230.67;219.87;;;10.00;99.90;;;;;;4361937;32;20220;-63
2021/10/28 01:06:34;;;;;;;230.10;218.90;;;10.00;99.90;;;;;;4363942;32;20166;-62
2021/10/28 01:09:03;;;;;;;227.83;216.77;;;10.00;99.90;;;;;;4364000;32;20167;-61
2021/10/28 01:11:31;;;;;;;232.37;221.43;;;9.90;99.90;;;;;;4362649;33;20155;-62
2021/10/28 01:13:59;;;;;;;222.60;212.07;;;9.90;99.90;;;;;;4364106;32;20596;-61
2021/10/28 01:16:26;;;;;;;224.73;214.23;;;9.90;99.90;;;;;;4363286;32;20255;-62
2021/10/28 01:18:54;;;;;;;222.77;212.30;;;9.90;99.90;;;;;;4363082;32;20167;-61
2021/10/28 01:21:23;;;;;;;229.83;219.30;;;9.90;99.90;;;;;;4361643;33;20199;-61
2021/10/28 01:23:50;;;;;;;204.33;194.70;;;9.90;99.90;;;;;;4362402;33;20171;-61
2021/10/28 01:26:18;;;;;;;211.87;201.57;;;9.80;99.90;;;;;;4362041;32;20180;-61
2021/10/28 01:28:54;;;;;;;224.87;213.77;;;9.90;99.90;;;;;;4363434;32;20235;-61
2021/10/28 01:31:22;;;;;;;208.13;198.17;;;9.80;99.90;;;;;;4364103;32;20631;-62
2021/10/28 01:33:50;;;;;;;218.10;207.53;;;9.70;99.90;;;;;;4363315;32;20587;-61
2021/10/28 01:36:18;;;;;;;204.97;195.27;;;9.70;99.90;;;;;;4362526;32;20532;-61
2021/10/28 01:38:47;;;;;;;201.77;192.20;;;9.70;99.90;;;;;;4362436;32;20670;-62
2021/10/28 01:41:14;;;;;;;207.40;197.70;;;9.70;99.90;;;;;;4363008;32;20167;-62
2021/10/28 01:43:42;;;;;;;211.50;201.57;;;9.70;99.90;;;;;;4362039;33;20648;-61
2021/10/28 01:46:12;;;;;;;218.13;207.67;;;9.70;99.90;;;;;;4359340;32;20188;-61
2021/10/28 01:48:40;;;;;;;227.80;217.20;;;9.60;99.90;;;;;;4358628;33;20591;-61
2021/10/28 01:51:07;;;;;;;208.67;198.90;;;9.60;99.90;;;;;;4347193;33;20148;-63
2021/10/28 01:53:37;;;;;;;206.43;196.33;;;9.60;99.90;;;;;;4354044;33;20208;-64
2021/10/28 01:56:06;;;;;;;190.43;181.30;;;9.60;99.90;;;;;;4361732;33;20144;-61
2021/10/28 01:58:33;;;;;;;198.23;188.23;;;9.60;99.90;;;;;;4348230;33;20160;-61
2021/10/28 02:01:02;;;;;;;212.87;202.57;;;9.50;99.90;;;;;;4348174;33;20244;-62
2021/10/28 02:03:29;;;;;;;196.73;187.37;;;9.50;99.90;;;;;;4347077;33;20153;-64
2021/10/28 02:05:56;;;;;;;195.07;186.27;;;9.50;99.90;;;;;;4347501;33;20157;-61
2021/10/28 02:08:23;;;;;;;197.27;187.50;;;9.50;99.90;;;;;;4347996;33;20513;-61
2021/10/28 02:10:50;;;;;;;223.93;213.73;;;9.40;99.90;;;;;;4347197;33;20158;-61
2021/10/28 02:13:20;;;;;;;200.50;190.33;;;9.40;99.90;;;;;;4361056;32;20226;-63
2021/10/28 02:15:47;;;;;;;199.37;189.83;;;9.40;99.90;;;;;;4361802;33;20141;-61
2021/10/28 02:18:14;;;;;;;211.57;201.60;;;9.40;99.90;;;;;;4361519;33;20145;-61
2021/10/28 02:20:41;;;;;;;199.70;190.67;;;9.40;99.90;;;;;;4362237;32;20145;-61
2021/10/28 02:23:09;;;;;;;202.37;192.87;;;9.40;99.90;;;;;;4361984;32;20148;-61
2021/10/28 02:25:37;;;;;;;211.40;201.50;;;9.40;99.90;;;;;;4362927;32;20604;-61
2021/10/28 02:28:04;;;;;;;202.60;193.17;;;9.30;99.90;;;;;;4362361;32;20153;-63
2021/10/28 02:30:34;;;;;;;211.03;200.60;;;9.30;99.90;;;;;;4363030;32;20169;-61
2021/10/28 02:33:01;;;;;;;203.07;193.63;;;9.30;99.90;;;;;;4362528;32;20640;-61
2021/10/28 02:35:28;;;;;;;202.27;192.40;;;9.30;99.90;;;;;;4361445;33;20153;-61
2021/10/28 02:37:55;;;;;;;203.80;194.20;;;9.30;99.90;;;;;;4361062;33;20192;-62
2021/10/28 02:40:22;;;;;;;218.30;208.10;;;9.30;99.90;;;;;;4361228;33;20168;-63
2021/10/28 02:42:49;;;;;;;223.03;212.77;;;9.30;99.90;;;;;;4361282;33;20171;-61
2021/10/28 02:45:16;;;;;;;207.33;197.53;;;9.20;99.90;;;;;;4360022;32;20226;-62
2021/10/28 02:47:44;;;;;;;218.33;208.23;;;9.20;99.90;;;;;;4362722;32;20555;-61
2021/10/28 02:50:12;;;;;;;207.33;197.57;;;9.20;99.90;;;;;;4362310;32;20156;-62
2021/10/28 02:52:38;;;;;;;211.00;201.40;;;9.20;99.90;;;;;;4361162;33;20174;-61
2021/10/28 02:55:06;;;;;;;219.10;208.67;;;9.10;99.90;;;;;;4362138;32;20637;-61
2021/10/28 02:57:33;;;;;;;216.63;206.27;;;9.10;99.90;;;;;;4362779;32;20481;-61
2021/10/28 03:00:06;;;;;;;212.77;202.77;;;9.10;99.90;;;;;;4361394;32;20171;-62
2021/10/28 03:02:32;;;;;;;210.90;201.03;;;9.10;99.90;;;;;;4361025;33;20211;-61
2021/10/28 03:05:01;;;;;;;227.47;216.70;;;9.10;99.90;;;;;;4361047;33;20149;-62
2021/10/28 03:07:28;;;;;;;206.63;196.87;;;9.10;99.90;;;;;;4360525;33;20171;-63
2021/10/28 03:09:55;;;;;;;214.23;203.83;;;9.00;99.90;;;;;;4361366;32;20187;-61
2021/10/28 03:12:22;;;;;;;220.13;210.03;;;9.00;99.90;;;;;;4361715;32;20170;-61
2021/10/28 03:14:51;;;;;;;211.60;201.87;;;9.00;99.90;;;;;;4361041;33;20148;-61
2021/10/28 03:17:28;;;;;;;219.70;209.43;;;9.00;99.90;;;;;;4360876;33;20200;-61
2021/10/28 03:25:41;;;;;;;198.13;188.63;;;9.00;99.90;;;;;;4362288;32;20250;-61
2021/10/28 03:28:16;;;;;;;201.60;191.80;;;9.00;99.90;;;;;;4360687;33;20423;-61
2021/10/28 03:30:43;;;;;;;212.17;202.00;;;9.00;99.90;;;;;;4360748;33;20145;-63
2021/10/28 03:33:16;;;;;;;208.37;198.57;;;9.00;99.90;;;;;;4360719;33;20175;-62
2021/10/28 03:35:46;;;;;;;206.30;196.43;;;9.00;99.90;;;;;;4361043;32;20185;-62
2021/10/28 03:38:20;;;;;;;213.93;204.03;;;8.90;99.90;;;;;;4360691;33;20222;-60
2021/10/28 03:41:14;;;;;;;211.10;201.17;;;8.90;99.90;;;;;;4362194;32;20151;-62
2021/10/28 03:44:03;;;;;;;192.23;183.30;;;8.90;99.90;;;;;;4360553;33;20242;-61
2021/10/28 03:49:54;;;;;;;184.70;175.57;;;8.80;99.90;;;;;;4301588;33;20168;-63
2021/10/28 04:16:23;;;;;;;192.17;183.17;;;8.80;99.90;;;;;;4242943;33;20603;-61
2021/10/28 04:17:28;;;;;;;203.90;194.13;;;8.80;99.90;;;;;;4241411;33;20194;-61
2021/10/28 04:30:58;;;;;;;192.77;183.47;;;8.70;99.90;;;;;;4285565;33;20200;-61
2021/10/28 04:33:25;;;;;;;200.40;190.93;;;8.70;99.90;;;;;;4283511;33;20849;-61
2021/10/28 04:35:52;;;;;;;199.40;190.37;;;8.60;99.90;;;;;;4309783;33;20183;-62
2021/10/28 04:38:19;;;;;;;217.53;207.83;;;8.60;99.90;;;;;;4353252;33;20184;-61
2021/10/28 04:40:46;;;;;;;214.60;204.93;;;8.70;99.90;;;;;;4362609;33;20232;-63
2021/10/28 04:43:14;;;;;;;193.30;184.40;;;8.70;99.90;;;;;;4362981;33;20149;-63
2021/10/28 04:45:41;;;;;;;210.73;201.13;;;8.80;99.90;;;;;;4364213;32;20181;-60
2021/10/28 04:48:11;;;;;;;221.97;211.80;;;8.60;99.90;;;;;;4362895;33;20154;-62
2021/10/28 04:50:38;;;;;;;202.27;192.80;;;8.60;99.90;;;;;;4362976;32;20182;-61
2021/10/28 04:53:05;;;;;;;197.97;188.77;;;8.60;99.90;;;;;;4360848;32;20213;-61
2021/10/28 04:55:31;;;;;;;205.77;196.13;;;8.60;99.90;;;;;;4362718;33;20176;-62
2021/10/28 04:57:58;;;;;;;198.70;188.73;;;8.60;99.90;;;;;;4362552;33;20170;-61
2021/10/28 05:00:27;;;;;;;192.90;183.90;;;8.70;99.90;;;;;;4362466;32;20149;-61
2021/10/28 05:02:53;;;;;;;205.30;195.47;;;8.60;99.90;;;;;;4363600;32;20479;-61
2021/10/28 05:05:20;;;;;;;203.57;194.03;;;8.60;99.90;;;;;;4362700;32;20223;-61
2021/10/28 05:07:47;;;;;;;187.37;178.53;;;8.60;99.90;;;;;;4362700;32;20250;-63
2021/10/28 05:10:14;;;;;;;189.83;180.63;;;8.60;99.90;;;;;;4364283;32;20159;-62
2021/10/28 05:12:41;;;;;;;188.47;179.67;;;8.50;99.90;;;;;;4361975;33;20157;-63
2021/10/28 05:15:08;;;;;;;187.70;178.67;;;8.50;99.90;;;;;;4362790;32;20211;-60
2021/10/28 05:17:37;;;;;;;199.27;190.03;;;8.50;99.90;;;;;;4363218;32;20473;-61
2021/10/28 05:20:05;;;;;;;196.20;186.90;;;8.50;99.90;;;;;;4361935;33;20583;-61
2021/10/28 05:22:32;;;;;;;198.87;189.07;;;8.50;99.90;;;;;;4362511;32;20481;-63
2021/10/28 05:25:01;;;;;;;192.10;183.20;;;8.40;99.90;;;;;;4359159;32;20656;-61
2021/10/28 05:27:28;;;;;;;192.40;183.20;;;8.40;99.90;;;;;;4337430;32;20215;-61
2021/10/28 05:29:54;;;;;;;197.00;187.67;;;8.40;99.90;;;;;;4339689;33;20239;-60
2021/10/28 05:32:21;;;;;;;187.00;178.23;;;8.40;99.90;;;;;;4341071;33;20182;-60
2021/10/28 05:34:51;;;;;;;212.73;202.90;;;8.40;99.90;;;;;;4348362;33;20519;-62
2021/10/28 05:37:19;;;;;;;205.87;195.93;;;8.40;99.90;;;;;;4345019;33;20153;-60
2021/10/28 05:39:46;;;;;;;202.53;192.97;;;8.40;99.90;;;;;;4346144;33;20163;-60
2021/10/28 05:42:13;;;;;;;201.13;191.57;;;8.30;99.90;;;;;;4347032;33;20482;-60
2021/10/28 05:44:40;;;;;;;214.43;204.50;;;8.30;99.90;;;;;;4342793;33;20231;-61
2021/10/28 05:47:19;;;;;;;193.03;183.57;;;8.40;99.90;;;;;;4347203;33;20224;-61
2021/10/28 05:49:47;;;;;;;200.57;190.87;;;8.30;99.90;;;;;;4343487;33;20149;-60
2021/10/28 05:52:15;;;;;;;211.80;201.50;;;8.30;99.90;;;;;;4345544;33;20175;-61
2021/10/28 05:54:42;;;;;;;205.67;195.73;;;8.30;99.90;;;;;;4344892;33;20208;-60
2021/10/28 05:57:09;;;;;;;218.23;208.20;;;8.30;99.90;;;;;;4345498;33;20150;-60
2021/10/28 05:59:36;;;;;;;215.43;205.13;;;8.30;99.90;;;;;;4347476;33;20185;-60
2021/10/28 06:02:03;;;;;;;207.73;197.87;;;8.30;99.90;;;;;;4346846;33;20655;-63
2021/10/28 06:04:30;;;;;;;215.37;205.50;;;8.30;99.90;;;;;;4344859;33;20157;-60
2021/10/28 06:06:57;;;;;;;208.73;198.63;;;8.20;99.90;;;;;;4345484;33;20190;-60
2021/10/28 06:09:25;;;;;;;206.40;196.00;;;8.30;99.90;;;;;;4341587;33;20228;-61
2021/10/28 06:11:52;;;;;;;215.70;205.50;;;8.30;99.90;;;;;;4341734;33;20211;-60
2021/10/28 06:14:24;;;;;;;217.73;207.83;;;8.20;99.90;;;;;;4344413;33;20641;-61
2021/10/28 06:16:53;;;;;;;218.73;208.43;;;8.30;99.90;;;;;;4345991;33;20200;-61
2021/10/28 06:19:20;;;;;;;199.30;189.67;;;8.20;99.90;;;;;;4345436;33;20662;-63
2021/10/28 06:21:47;;;;;;;206.70;196.73;;;8.20;99.90;;;;;;4345623;33;20262;-60
2021/10/28 06:24:14;;;;;;;202.93;193.17;;;8.20;99.90;;;;;;4346426;33;20185;-61
2021/10/28 06:26:42;;;;;;;202.43;192.90;;;8.10;99.90;;;;;;4343799;33;20289;-61
2021/10/28 06:29:10;;;;;;;199.37;190.00;;;8.20;99.90;;;;;;4345881;33;20176;-61
2021/10/28 06:31:37;;;;;;;202.17;192.57;;;8.20;99.90;;;;;;4345554;33;20254;-61
2021/10/28 06:34:07;;;;;;;196.53;187.00;;;8.10;99.90;;;;;;4348042;33;20202;-61
2021/10/28 06:36:36;;;;;;;213.67;203.10;;;8.10;99.90;;;;;;4347136;33;20158;-61
2021/10/28 06:39:03;;;;;;;203.00;193.47;;;8.10;99.90;;;;;;4346534;33;20198;-61
2021/10/28 06:41:31;;;;;;;199.33;189.97;;;8.10;99.90;;;;;;4345637;33;20175;-61
2021/10/28 06:44:00;;;;;;;196.97;187.30;;;8.20;99.90;;;;;;4345747;33;20214;-60
2021/10/28 06:46:27;;;;;;;206.73;196.53;;;8.20;99.90;;;;;;4344799;33;20243;-61
2021/10/28 06:48:54;;;;;;;211.23;201.20;;;8.20;99.90;;;;;;4342972;33;20216;-61
2021/10/28 06:51:22;;;;;;;212.80;202.50;;;8.30;99.90;;;;;;4346542;33;20240;-61
2021/10/28 06:53:57;;;;;;;186.03;177.00;;;8.20;99.90;;;;;;4345999;33;20472;-61
2021/10/28 06:56:58;;;;;;;202.77;192.80;;;8.20;99.90;;;;;;4360034;32;20224;-61
2021/10/28 07:02:30;;;;;;;201.10;191.27;;;8.30;99.90;;;;;;4346252;33;20232;-61
2021/10/28 07:04:58;;;;;;;212.43;201.83;;;8.30;99.90;;;;;;4343464;33;20211;-60
2021/10/28 07:07:26;;;;;;;211.33;201.13;;;8.30;99.90;;;;;;4346237;33;20584;-60
2021/10/28 07:10:00;;;;;;;212.10;201.70;;;8.40;99.90;;;;;;4346076;33;20185;-61
2021/10/28 07:12:37;;;;;;;215.27;204.87;;;8.40;99.90;;;;;;4346068;33;20149;-61
2021/10/28 07:15:11;;;;;;;208.97;198.83;;;8.40;99.90;;;;;;4346563;33;20501;-61
2021/10/28 07:17:45;;;;;;;217.17;206.77;;;8.40;99.90;;;;;;4347667;33;20222;-61
2021/10/28 07:23:00;;;;;;;215.73;204.77;;;8.50;99.90;;;;;;4282480;33;2058262;-60
2021/10/28 07:28:28;;;;;;;215.00;204.67;;;8.60;99.90;;;;;;4286773;33;20163;-60
2021/10/28 07:31:21;;;;;;;229.10;218.43;;;8.60;99.90;;;;;;4287021;33;20179;-60
2021/10/28 07:33:59;;;;;;;242.20;230.77;;;8.70;99.90;;;;;;4285470;33;20267;-61
2021/10/28 07:38:07;;;;;;;225.23;214.53;;;8.80;99.90;;;;;;4287088;33;20166;-61
2021/10/28 07:39:47;;;;;;;215.67;204.93;;;8.80;99.90;;;;;;4286798;33;20283;-61
2021/10/28 07:56:32;;;;;;;211.13;201.03;;;9.30;99.90;;;;;;4286960;33;20161;-60
2021/10/28 08:16:25;;;;;;;172.73;163.43;;;9.80;99.90;;;;;;4247067;33;20164;-61
2021/10/28 08:18:59;;;;;;;166.57;158.10;;;9.90;99.90;;;;;;4245346;33;20656;-60
2021/10/28 08:21:38;;;;;;;159.73;151.50;;;9.90;99.90;;;;;;4245151;33;20596;-60
2021/10/28 08:24:14;;;;;;;151.90;143.87;;;10.00;99.90;;;;;;4245393;33;20287;-61
2021/10/28 08:29:23;;;;;;;145.97;138.40;;;10.10;99.90;;;;;;4231266;34;20231;-60
2021/10/28 08:31:51;;;;;;;160.40;152.27;;;10.20;99.90;;;;;;4230817;34;20700;-61
2021/10/28 08:34:22;;;;;;;144.93;137.47;;;10.20;99.90;;;;;;4231191;34;20220;-61
2021/10/28 08:36:52;;;;;;;149.60;141.73;;;10.30;99.90;;;;;;4243803;33;20184;-61
2021/10/28 08:39:20;;;;;;;131.73;124.93;;;10.40;99.90;;;;;;4302150;33;20482;-61
2021/10/28 08:41:48;;;;;;;118.70;112.57;;;10.40;99.90;;;;;;4302170;33;20158;-61
2021/10/28 08:44:18;;;;;;;112.77;106.40;;;10.50;99.90;;;;;;4302239;33;20688;-61
2021/10/28 08:46:47;;;;;;;114.33;108.13;;;10.60;99.90;;;;;;4302041;33;20177;-60
2021/10/28 08:49:20;;;;;;;108.50;101.97;;;10.60;99.90;;;;;;4302208;33;20188;-61
2021/10/28 08:51:55;;;;;;;106.83;100.83;;;10.70;99.90;;;;;;4310057;33;20158;-61
2021/10/28 08:54:56;;;;;;;106.90;100.67;;;10.80;99.90;;;;;;4316512;33;20172;-61
2021/10/28 08:57:41;;;;;;;104.60;98.53;;;10.90;99.90;;;;;;4317295;33;20664;-61
2021/10/28 09:25:37;;;;;;;94.13;88.90;;;11.60;99.90;;;;;;4333666;33;20213;-61
2021/10/28 09:28:26;;;;;;;85.33;80.13;;;11.60;99.90;;;;;;4333353;33;20212;-61
2021/10/28 09:31:06;;;;;;;99.17;93.50;;;11.80;99.90;;;;;;4333137;33;20170;-63
2021/10/28 09:33:42;;;;;;;89.07;84.03;;;11.80;99.90;;;;;;4332795;33;20635;-61
2021/10/28 09:45:55;;;;;;;87.27;82.50;;;12.10;99.90;;;;;;4346915;33;20191;-63
2021/10/28 09:49:48;;;;;;;87.07;82.27;;;12.20;99.90;;;;;;4345545;33;20650;-60
2021/10/28 09:51:43;;;;;;;88.47;83.43;;;12.30;99.90;;;;;;4343281;33;20212;-63
2021/10/28 09:54:21;;;;;;;92.07;86.67;;;12.40;99.90;;;;;;4348841;33;20145;-61
2021/10/28 09:59:50;;;;;;;96.90;91.47;;;12.50;99.90;;;;;;4347347;33;20184;-60
2021/10/28 10:02:32;;;;;;;88.67;83.53;;;12.60;99.90;;;;;;4349112;32;20561;-60
2021/10/28 10:05:19;;;;;;;88.10;83.13;;;12.70;99.90;;;;;;4347087;33;20180;-63
2021/10/28 10:07:56;;;;;;;86.77;81.90;;;12.70;99.90;;;;;;4347022;33;20612;-63
2021/10/28 10:10:28;;;;;;;94.53;89.33;;;12.70;99.90;;;;;;4348620;33;20573;-62
2021/10/28 10:13:04;;;;;;;95.13;90.13;;;12.80;99.90;;;;;;4347323;33;20145;-60
2021/10/28 10:15:34;;;;;;;96.43;91.27;;;12.80;99.90;;;;;;4346205;33;20145;-60
2021/10/28 10:18:06;;;;;;;95.23;90.03;;;12.80;99.90;;;;;;4346363;33;20169;-60
2021/10/28 10:20:44;;;;;;;87.00;82.33;;;13.00;99.90;;;;;;4346721;33;20180;-63
2021/10/28 10:23:31;;;;;;;87.97;83.27;;;13.00;99.90;;;;;;4345743;33;20148;-61
2021/10/28 10:26:18;;;;;;;74.53;70.17;;;13.10;99.90;;;;;;4346758;33;20134;-64
2021/10/28 11:22:53;;;;;;;83.77;78.93;;;14.10;99.90;;;;;;4360993;32;20243;-61
2021/10/28 12:20:29;;;;;;;83.40;78.60;;;14.90;99.90;;;;;;4359675;33;20249;-64
2021/10/28 12:46:27;;;;;;;79.90;75.50;;;15.30;99.90;;;;;;4298126;33;20248;-64
2021/10/28 12:51:59;;;;;;;68.07;64.37;;;15.50;99.90;;;;;;4297861;33;20194;-61
2021/10/28 13:03:41;;;;;;;57.03;54.23;;;15.50;99.90;;;;;;4215855;34;20219;-64
2021/10/28 13:37:59;;;;;;;59.43;56.43;;;15.50;99.90;;;;;;4230441;33;20156;-63
2021/10/28 13:48:57;;;;;;;60.20;57.07;;;15.70;99.90;;;;;;4298684;33;20546;-63
2021/10/28 13:51:47;;;;;;;55.43;52.60;;;15.70;99.90;;;;;;4301912;33;20215;-62
2021/10/28 13:54:29;;;;;;;54.67;52.03;;;15.60;99.90;;;;;;4301150;33;20162;-64
2021/10/28 13:59:59;;;;;;;51.93;49.37;;;15.70;99.90;;;;;;4301103;33;20205;-64
2021/10/28 14:20:14;;;;;;;59.77;56.77;;;15.60;99.90;;;;;;4296686;33;20166;-64
2021/10/28 15:30:10;;;;;;;68.83;65.73;;;14.80;99.90;;;;;;4283203;33;20177;-63
2021/10/28 15:33:17;;;;;;;68.30;65.03;;;14.70;99.90;;;;;;4282419;33;20181;-62
2021/10/28 15:35:49;;;;;;;67.30;64.00;;;14.80;99.90;;;;;;4302449;33;20176;-62
2021/10/28 15:38:34;;;;;;;71.80;68.20;;;14.60;99.90;;;;;;4344268;33;20156;-63
2021/10/28 15:41:45;;;;;;;70.80;67.60;;;14.60;99.90;;;;;;4342271;33;20558;-64
2021/10/28 15:56:11;;;;;;;61.37;58.60;;;14.30;99.90;;;;;;4341701;33;20576;-62
2021/10/28 16:23:32;;;;;;;70.80;67.60;;;13.40;99.90;;;;;;4334890;33;20601;-62
2021/10/28 16:26:03;;;;;;;80.07;76.20;;;13.40;99.90;;;;;;4341815;33;20180;-62
2021/10/28 16:28:35;;;;;;;75.77;72.37;;;13.30;99.90;;;;;;4335494;33;20149;-62
2021/10/28 16:31:20;;;;;;;76.13;72.77;;;13.30;99.90;;;;;;4346381;33;20154;-63
2021/10/28 16:33:49;;;;;;;72.57;69.30;;;13.20;99.90;;;;;;4347013;33;20472;-65
2021/10/28 16:36:21;;;;;;;71.07;67.47;;;13.20;99.90;;;;;;4346631;33;20205;-62
2021/10/28 16:38:53;;;;;;;82.47;78.67;;;13.10;99.90;;;;;;4346505;33;20299;-63
2021/10/28 16:41:21;;;;;;;83.97;80.17;;;13.10;99.90;;;;;;4348037;33;20324;-63
2021/10/28 16:43:53;;;;;;;83.70;80.03;;;13.00;99.90;;;;;;4348583;33;20156;-62
2021/10/28 16:46:20;;;;;;;86.43;82.57;;;12.90;99.90;;;;;;4347688;33;20153;-63
2021/10/28 16:48:49;;;;;;;81.30;77.60;;;12.90;99.90;;;;;;4347774;33;20172;-66
2021/10/28 16:51:20;;;;;;;87.93;84.03;;;12.80;99.90;;;;;;4348378;33;20160;-63
2021/10/28 16:53:57;;;;;;;78.30;74.57;;;12.80;99.90;;;;;;4348241;32;20188;-63
2021/10/28 16:56:32;;;;;;;86.00;82.20;;;12.70;99.90;;;;;;4349200;33;20179;-62
2021/10/28 16:58:59;;;;;;;75.20;71.77;;;12.70;99.90;;;;;;4348807;33;20156;-63
2021/10/28 17:01:30;;;;;;;82.93;79.37;;;12.60;99.90;;;;;;4348781;33;20162;-62
2021/10/28 17:03:58;;;;;;;79.57;75.83;;;12.60;99.90;;;;;;4347274;33;20157;-66
2021/10/28 17:06:33;;;;;;;88.57;84.77;;;12.50;99.90;;;;;;4347567;33;20149;-63
2021/10/28 17:09:06;;;;;;;80.07;76.47;;;12.50;99.90;;;;;;4348599;33;20231;-63
2021/10/28 17:11:36;;;;;;;76.87;73.27;;;12.40;99.90;;;;;;4348180;33;20183;-65
2021/10/28 17:14:08;;;;;;;84.70;80.90;;;12.30;99.90;;;;;;4347049;33;20204;-64
2021/10/28 17:16:39;;;;;;;83.17;79.43;;;12.30;99.90;;;;;;4348975;33;20593;-63
2021/10/28 17:21:51;;;;;;;83.37;79.63;;;12.30;99.90;;;;;;4345099;33;20168;-62
2021/10/28 17:24:27;;;;;;;92.27;88.13;;;12.20;99.90;;;;;;4348759;33;20157;-63
2021/10/28 17:27:10;;;;;;;87.90;84.03;;;12.20;99.90;;;;;;4349168;33;20179;-63
2021/10/28 17:29:43;;;;;;;92.47;88.27;;;12.20;99.90;;;;;;4347868;33;20165;-64
2021/10/28 17:32:10;;;;;;;92.97;88.83;;;12.20;99.90;;;;;;4347522;33;20216;-63
2021/10/28 17:34:49;;;;;;;86.27;82.27;;;12.10;99.90;;;;;;4344958;32;20456;-63
2021/10/28 17:37:19;;;;;;;88.50;84.23;;;12.10;99.90;;;;;;4342591;33;20180;-62
2021/10/28 17:39:49;;;;;;;94.37;90.03;;;12.00;99.90;;;;;;4345662;33;20274;-64
2021/10/28 17:42:18;;;;;;;90.07;85.97;;;12.00;99.90;;;;;;4346458;33;20574;-63
2021/10/28 17:44:51;;;;;;;86.80;82.77;;;11.90;99.90;;;;;;4346564;33;20169;-62
2021/10/28 17:47:22;;;;;;;87.57;83.63;;;12.00;99.90;;;;;;4343319;33;20205;-63
2021/10/28 17:49:55;;;;;;;82.33;78.57;;;12.00;99.90;;;;;;4345586;33;20663;-63
2021/10/28 17:52:24;;;;;;;91.30;86.83;;;12.00;99.90;;;;;;4347602;33;20146;-61
2021/10/28 17:55:02;;;;;;;95.10;90.17;;;12.00;99.90;;;;;;4345815;33;20168;-62
2021/10/28 17:57:36;;;;;;;88.70;84.70;;;12.00;99.90;;;;;;4345395;33;20232;-63
2021/10/28 18:00:06;;;;;;;86.37;82.30;;;12.00;99.90;;;;;;4344347;33;20231;-63
2021/10/28 18:02:52;;;;;;;88.93;84.77;;;12.00;99.90;;;;;;4344899;33;20153;-62
2021/10/28 18:05:25;;;;;;;86.27;82.17;;;12.00;99.90;;;;;;4335827;33;20570;-63
2021/10/28 18:07:53;;;;;;;86.53;82.63;;;12.00;99.90;;;;;;4344381;33;20172;-62
2021/10/28 18:10:30;;;;;;;93.00;88.47;;;12.00;99.90;;;;;;4345297;33;20159;-62
2021/10/28 18:12:57;;;;;;;95.67;91.53;;;12.00;99.90;;;;;;4346574;33;20144;-63
2021/10/28 18:15:36;;;;;;;88.93;84.77;;;11.90;99.90;;;;;;4346228;33;20157;-63
2021/10/28 18:18:08;;;;;;;91.73;87.63;;;12.00;99.90;;;;;;4346408;33;20219;-63
2021/10/28 18:20:43;;;;;;;92.10;88.10;;;11.90;99.90;;;;;;4346641;33;20207;-63
2021/10/28 18:23:22;;;;;;;91.37;87.27;;;11.90;99.90;;;;;;4345265;33;20164;-62
2021/10/28 18:26:20;;;;;;;93.23;89.03;;;11.80;99.90;;;;;;4345755;33;20222;-62
2021/10/28 18:28:50;;;;;;;91.27;87.07;;;11.90;99.90;;;;;;4345399;33;20220;-63
2021/10/28 18:31:26;;;;;;;94.60;90.43;;;11.90;99.90;;;;;;4346435;33;20204;-62
2021/10/28 18:33:53;;;;;;;92.87;88.30;;;11.90;99.90;;;;;;4344854;33;20157;-62
2021/10/28 18:36:22;;;;;;;101.33;96.93;;;11.90;99.90;;;;;;4345202;33;20175;-62
2021/10/28 18:38:50;;;;;;;93.87;89.50;;;11.90;99.90;;;;;;4345192;33;20577;-62
2021/10/28 18:41:25;;;;;;;94.60;90.17;;;11.90;99.90;;;;;;4345583;33;20153;-62
2021/10/28 18:44:16;;;;;;;93.13;89.03;;;11.80;99.90;;;;;;4345562;33;20196;-64
2021/10/28 18:47:09;;;;;;;95.47;91.27;;;11.80;99.90;;;;;;4270697;33;20163;-62
2021/10/28 18:49:49;;;;;;;93.37;89.00;;;11.80;99.90;;;;;;4271007;33;20174;-64
2021/10/28 18:52:31;;;;;;;92.10;87.87;;;11.80;99.90;;;;;;4270329;33;20166;-62
2021/10/28 18:55:12;;;;;;;97.33;92.47;;;11.90;99.90;;;;;;4269171;33;20158;-62
2021/10/28 18:57:49;;;;;;;90.13;86.07;;;11.90;99.90;;;;;;4270584;33;20265;-62
2021/10/28 19:00:23;;;;;;;98.77;94.33;;;11.80;99.90;;;;;;4272242;33;20170;-65
2021/10/28 19:02:52;;;;;;;96.90;92.67;;;11.80;99.90;;;;;;4270446;33;20189;-62
2021/10/28 19:05:21;;;;;;;101.00;96.60;;;11.80;99.90;;;;;;4270096;33;20622;-62
2021/10/28 19:07:54;;;;;;;98.70;94.20;;;11.80;99.90;;;;;;4270658;33;20242;-62
2021/10/28 19:10:28;;;;;;;99.03;94.43;;;11.80;99.90;;;;;;4269155;33;20166;-65
2021/10/28 19:12:56;;;;;;;91.93;87.70;;;11.80;99.90;;;;;;4269294;33;20319;-62
2021/10/28 19:15:25;;;;;;;95.13;90.63;;;11.80;99.90;;;;;;4271312;33;20552;-62
2021/10/28 19:17:57;;;;;;;102.00;97.40;;;11.70;99.90;;;;;;4272417;33;20782;-62
2021/10/28 19:20:38;;;;;;;101.77;96.90;;;11.70;99.90;;;;;;4272799;33;20178;-64
2021/10/28 19:23:07;;;;;;;97.77;92.87;;;11.70;99.90;;;;;;4279839;33;20169;-63
2021/10/28 19:25:53;;;;;;;97.13;92.83;;;11.70;99.90;;;;;;4318306;33;20602;-62
2021/10/28 19:28:44;;;;;;;98.57;93.43;;;11.60;99.90;;;;;;4316503;33;20508;-62
2021/10/28 19:31:19;;;;;;;98.13;93.63;;;11.60;99.90;;;;;;4317793;33;20166;-62
2021/10/28 19:33:54;;;;;;;99.03;94.33;;;11.60;99.90;;;;;;4314040;33;20258;-62
2021/10/28 19:36:39;;;;;;;97.77;93.23;;;11.50;99.90;;;;;;4317506;33;20161;-62
2021/10/28 19:42:30;;;;;;;99.10;94.33;;;11.50;99.90;;;;;;4317718;33;20486;-62
2021/10/28 19:45:15;;;;;;;96.93;92.30;;;11.60;99.90;;;;;;4316427;33;20589;-62
2021/10/28 19:47:42;;;;;;;101.47;96.73;;;11.50;99.90;;;;;;4317786;33;20150;-62
2021/10/28 19:50:14;;;;;;;98.97;94.47;;;11.50;99.90;;;;;;4316956;33;20164;-62
2021/10/28 19:52:44;;;;;;;107.83;102.70;;;11.50;99.90;;;;;;4316090;33;20176;-62
2021/10/28 19:55:14;;;;;;;91.77;87.53;;;11.50;99.90;;;;;;4316373;33;20145;-62
2021/10/28 19:57:49;;;;;;;103.97;99.30;;;11.50;99.90;;;;;;4316217;33;20165;-62
2021/10/28 20:00:24;;;;;;;104.83;99.97;;;11.40;99.90;;;;;;4317744;33;20291;-62
2021/10/28 20:14:33;;;;;;;98.33;93.43;;;11.40;99.90;;;;;;4240433;33;20230;-63
2021/10/28 20:20:11;;;;;;;85.60;81.63;;;11.40;99.90;;;;;;4246852;33;20162;-61
2021/10/28 20:22:50;;;;;;;91.30;86.90;;;11.40;99.90;;;;;;4255560;33;20155;-61
2021/10/28 20:25:21;;;;;;;87.03;82.93;;;11.40;99.90;;;;;;4267557;33;20953;-61
2021/10/28 20:27:50;;;;;;;91.20;86.93;;;11.40;99.90;;;;;;4272221;33;20170;-61
2021/10/28 20:30:19;;;;;;;90.87;86.73;;;11.40;99.90;;;;;;4271374;33;20193;-63
2021/10/28 20:32:47;;;;;;;86.10;81.90;;;11.50;99.90;;;;;;4271806;33;20189;-61